createdAt,value
2023-05-01T00:01:14.409Z,9.83
2023-05-01T00:06:18.801Z,9.75
2023-05-01T00:11:21.902Z,9.70
2023-05-01T00:16:24.899Z,9.64
2023-05-01T00:21:29.525Z,9.62
2023-05-01T00:26:32.518Z,9.55
2023-05-01T00:31:35.763Z,9.54
2023-05-01T00:36:40.944Z,9.46
2023-05-01T00:41:44.487Z,9.33
2023-05-01T00:46:47.530Z,9.23
2023-05-01T00:51:54.257Z,9.11
2023-05-01T00:56:58.273Z,9.03
2023-05-01T01:02:01.608Z,8.94
2023-05-01T01:07:12.742Z,8.82
2023-05-01T01:12:24.357Z,8.71
2023-05-01T01:17:33.122Z,8.75
2023-05-01T01:22:42.180Z,8.77
2023-05-01T01:28:12.679Z,8.80
2023-05-01T01:33:26.633Z,8.76
2023-05-01T01:38:38.473Z,8.78
2023-05-01T01:43:46.954Z,8.77
2023-05-01T01:48:51.835Z,8.80
2023-05-01T01:53:59.669Z,8.68
2023-05-01T01:59:04.367Z,8.60
2023-05-01T02:04:09.761Z,8.59
2023-05-01T02:09:20.393Z,8.63
2023-05-01T02:14:26.265Z,8.67
2023-05-01T02:19:29.615Z,8.61
2023-05-01T02:24:35.059Z,8.56
2023-05-01T02:29:38.550Z,8.57
2023-05-01T02:34:42.027Z,8.54
2023-05-01T02:39:46.436Z,8.45
2023-05-01T02:44:55.200Z,8.40
2023-05-01T02:50:00.182Z,8.34
2023-05-01T02:55:05.587Z,8.26
2023-05-01T03:00:13.664Z,8.15
2023-05-01T03:05:17.104Z,8.03
2023-05-01T03:10:21.841Z,7.92
2023-05-01T03:15:24.937Z,7.92
2023-05-01T03:20:27.946Z,7.85
2023-05-01T03:25:32.467Z,7.80
2023-05-01T03:30:36.234Z,7.77
2023-05-01T03:35:39.563Z,7.77
2023-05-01T03:40:44.253Z,7.83
2023-05-01T03:45:47.717Z,7.86
2023-05-01T03:50:50.778Z,7.91
2023-05-01T03:55:55.649Z,7.99
2023-05-01T04:01:01.172Z,8.05
2023-05-01T04:06:04.554Z,8.14
2023-05-01T04:11:09.130Z,8.19
2023-05-01T04:16:12.426Z,8.22
2023-05-01T04:21:17.597Z,8.36
2023-05-01T04:26:21.985Z,8.39
2023-05-01T04:31:25.019Z,8.44
2023-05-01T04:36:29.513Z,8.47
2023-05-01T04:41:33.914Z,8.55
2023-05-01T04:46:37.012Z,8.61
2023-05-01T04:51:40.022Z,8.70
2023-05-01T04:56:44.330Z,8.82
2023-05-01T05:01:47.553Z,8.91
2023-05-01T05:06:50.703Z,8.95
2023-05-01T05:11:55.098Z,8.98
2023-05-01T05:16:58.414Z,9.08
2023-05-01T05:22:03.826Z,9.20
2023-05-01T05:27:08.345Z,9.23
2023-05-01T05:32:11.508Z,9.31
2023-05-01T05:37:15.360Z,9.44
2023-05-01T05:42:19.715Z,9.56
2023-05-01T05:47:22.877Z,9.71
2023-05-01T05:52:25.962Z,9.88
2023-05-01T05:57:30.766Z,10.02
2023-05-01T06:02:34.354Z,10.20
2023-05-01T06:07:37.538Z,10.37
2023-05-01T06:12:45.276Z,10.57
2023-05-01T06:17:54.066Z,10.81
2023-05-01T06:22:57.548Z,11.06
2023-05-01T06:28:02.487Z,11.12
2023-05-01T06:33:05.512Z,11.51
2023-05-01T06:38:08.622Z,12.04
2023-05-01T06:43:13.080Z,12.55
2023-05-01T06:48:16.223Z,12.65
2023-05-01T06:53:19.236Z,12.98
2023-05-01T06:58:24.613Z,12.99
2023-05-01T07:03:28.444Z,13.45
2023-05-01T07:08:31.997Z,13.32
2023-05-01T07:13:36.402Z,13.04
2023-05-01T07:18:39.395Z,13.71
2023-05-01T07:23:42.454Z,13.89
2023-05-01T07:28:46.868Z,14.27
2023-05-01T07:33:51.105Z,14.81
2023-05-01T07:38:55.704Z,14.57
2023-05-01T07:44:00.937Z,16.88
2023-05-01T07:49:04.199Z,16.38
2023-05-01T07:54:07.307Z,17.18
2023-05-01T07:59:11.699Z,16.07
2023-05-01T08:04:15.074Z,16.15
2023-05-01T08:09:18.188Z,16.52
2023-05-01T08:14:22.629Z,17.34
2023-05-01T08:19:27.813Z,17.22
2023-05-01T08:24:31.178Z,16.61
2023-05-01T08:29:35.725Z,16.56
2023-05-01T08:34:39.024Z,16.51
2023-05-01T08:39:42.074Z,16.44
2023-05-01T08:44:47.514Z,16.30
2023-05-01T08:49:52.911Z,16.62
2023-05-01T08:54:58.441Z,16.64
2023-05-01T09:00:05.394Z,16.68
2023-05-01T09:05:10.306Z,16.66
2023-05-01T09:10:13.976Z,16.72
2023-05-01T09:15:19.053Z,16.64
2023-05-01T09:20:22.717Z,16.30
2023-05-01T09:25:25.828Z,16.33
2023-05-01T09:30:35.042Z,16.69
2023-05-01T09:35:52.571Z,16.95
2023-05-01T09:40:57.841Z,16.89
2023-05-01T09:46:04.872Z,16.90
2023-05-01T09:51:26.787Z,17.13
2023-05-01T09:56:31.670Z,17.54
2023-05-01T10:01:43.391Z,18.23
2023-05-01T10:06:46.863Z,18.07
2023-05-01T10:11:52.095Z,18.17
2023-05-01T10:16:57.687Z,17.82
2023-05-01T10:22:00.937Z,17.49
2023-05-01T10:27:07.815Z,17.74
2023-05-01T10:32:12.657Z,17.99
2023-05-01T10:37:30.844Z,17.51
2023-05-01T10:42:34.333Z,18.05
2023-05-01T10:47:49.158Z,18.87
2023-05-01T10:53:17.353Z,19.39
2023-05-01T10:58:58.889Z,19.63
2023-05-01T11:04:05.003Z,20.05
2023-05-01T11:09:40.207Z,19.69
2023-05-01T11:15:06.123Z,19.81
2023-05-01T11:20:12.177Z,20.26
2023-05-01T11:25:20.490Z,20.16
2023-05-01T11:30:23.755Z,20.49
2023-05-01T11:35:30.678Z,20.61
2023-05-01T11:40:35.400Z,21.40
2023-05-01T11:45:38.690Z,20.87
2023-05-01T11:50:43.292Z,20.55
2023-05-01T11:55:46.964Z,20.79
2023-05-01T12:00:51.670Z,20.95
2023-05-01T12:05:56.418Z,20.73
2023-05-01T12:10:59.682Z,20.48
2023-05-01T12:16:04.173Z,20.59
2023-05-01T12:21:16.643Z,20.67
2023-05-01T12:26:21.767Z,20.81
2023-05-01T12:31:25.750Z,20.84
2023-05-01T12:36:32.327Z,20.89
2023-05-01T12:41:37.913Z,20.98
2023-05-01T12:46:41.382Z,20.25
2023-05-01T12:51:49.128Z,19.99
2023-05-01T12:56:53.629Z,20.31
2023-05-01T13:02:01.347Z,19.76
2023-05-01T13:07:11.898Z,19.23
2023-05-01T13:12:15.101Z,19.08
2023-05-01T13:17:25.490Z,18.41
2023-05-01T13:22:33.764Z,18.38
2023-05-01T13:27:37.910Z,18.13
2023-05-01T13:32:42.514Z,17.98
2023-05-01T13:37:47.350Z,17.61
2023-05-01T13:42:53.620Z,18.38
2023-05-01T13:47:56.959Z,19.07
2023-05-01T13:53:01.658Z,19.99
2023-05-01T13:58:04.724Z,20.07
2023-05-01T14:03:12.016Z,19.87
2023-05-01T14:08:16.594Z,19.65
2023-05-01T14:13:19.916Z,19.99
2023-05-01T14:18:22.971Z,20.29
2023-05-01T14:23:27.799Z,20.35
2023-05-01T14:28:32.149Z,19.72
2023-05-01T14:33:41.276Z,19.20
2023-05-01T14:38:49.213Z,18.80
2023-05-01T14:43:54.195Z,18.65
2023-05-01T14:48:57.721Z,18.53
2023-05-01T14:54:02.096Z,17.95
2023-05-01T14:59:05.146Z,17.68
2023-05-01T15:04:08.392Z,17.42
2023-05-01T15:09:13.152Z,17.32
2023-05-01T15:14:16.625Z,17.20
2023-05-01T15:19:21.611Z,17.05
2023-05-01T15:24:25.964Z,16.96
2023-05-01T15:29:28.962Z,16.91
2023-05-01T15:34:31.968Z,16.81
2023-05-01T15:39:37.964Z,16.71
2023-05-01T15:44:40.998Z,16.68
2023-05-01T15:49:43.989Z,16.71
2023-05-01T15:54:48.332Z,16.70
2023-05-01T15:59:53.845Z,16.68
2023-05-01T16:04:56.928Z,16.69
2023-05-01T16:10:02.038Z,16.62
2023-05-01T16:15:06.205Z,16.68
2023-05-01T16:20:12.182Z,16.77
2023-05-01T16:25:16.956Z,16.88
2023-05-01T16:30:21.934Z,17.08
2023-05-01T16:35:28.508Z,17.12
2023-05-01T16:40:32.869Z,17.04
2023-05-01T16:45:37.735Z,17.08
2023-05-01T16:50:42.252Z,17.15
2023-05-01T16:55:46.599Z,17.22
2023-05-01T17:00:49.619Z,17.29
2023-05-01T17:05:52.706Z,17.08
2023-05-01T17:10:57.705Z,17.01
2023-05-01T17:16:00.774Z,16.84
2023-05-01T17:21:03.938Z,16.70
2023-05-01T17:26:08.467Z,16.53
2023-05-01T17:31:11.642Z,16.45
2023-05-01T17:36:14.737Z,16.46
2023-05-01T17:41:19.548Z,16.36
2023-05-01T17:46:22.817Z,16.27
2023-05-01T17:51:25.907Z,16.15
2023-05-01T17:56:30.304Z,16.05
2023-05-01T18:01:33.601Z,15.84
2023-05-01T18:06:36.982Z,15.84
2023-05-01T18:11:41.441Z,15.63
2023-05-01T18:16:44.878Z,15.40
2023-05-01T18:21:47.949Z,15.13
2023-05-01T18:26:52.541Z,14.95
2023-05-01T18:31:55.777Z,14.74
2023-05-01T18:36:58.850Z,14.62
2023-05-01T18:42:03.732Z,14.38
2023-05-01T18:47:06.921Z,14.18
2023-05-01T18:52:10.119Z,14.20
2023-05-01T18:57:14.549Z,14.11
2023-05-01T19:02:17.533Z,14.01
2023-05-01T19:07:20.630Z,13.79
2023-05-01T19:12:24.969Z,13.53
2023-05-01T19:17:28.107Z,13.38
2023-05-01T19:22:31.156Z,13.31
2023-05-01T19:27:35.516Z,13.18
2023-05-01T19:32:39.140Z,12.96
2023-05-01T19:37:42.203Z,12.84
2023-05-01T19:42:46.602Z,12.60
2023-05-01T19:47:49.752Z,12.49
2023-05-01T19:52:53.416Z,12.52
2023-05-01T19:57:58.241Z,12.56
2023-05-01T20:03:01.942Z,12.52
2023-05-01T20:08:05.804Z,12.53
2023-05-01T20:13:11.028Z,12.44
2023-05-01T20:18:14.395Z,12.49
2023-05-01T20:23:19.297Z,12.56
2023-05-01T20:28:24.108Z,12.59
2023-05-01T20:33:27.302Z,12.59
2023-05-01T20:38:30.764Z,12.59
2023-05-01T20:43:35.110Z,12.58
2023-05-01T20:48:38.100Z,12.69
2023-05-01T20:53:41.174Z,12.64
2023-05-01T20:58:45.558Z,12.64
2023-05-01T21:03:48.893Z,12.62
2023-05-01T21:08:52.716Z,12.74
2023-05-01T21:13:58.178Z,12.79
2023-05-01T21:19:01.194Z,12.79
2023-05-01T21:24:05.026Z,12.80
2023-05-01T21:29:10.360Z,12.82
2023-05-01T21:34:18.204Z,12.77
2023-05-01T21:39:24.414Z,12.78
2023-05-01T21:44:31.541Z,12.85
2023-05-01T21:49:34.707Z,12.86
2023-05-01T21:54:39.186Z,12.87
2023-05-01T21:59:44.970Z,12.85
2023-05-01T22:04:48.161Z,12.84
2023-05-01T22:09:51.161Z,12.82
2023-05-01T22:14:55.526Z,12.79
2023-05-01T22:19:58.767Z,12.80
2023-05-01T22:25:02.348Z,12.77
2023-05-01T22:30:08.089Z,12.70
2023-05-01T22:35:11.166Z,12.71
2023-05-01T22:40:14.226Z,12.62
2023-05-01T22:45:18.568Z,12.59
2023-05-01T22:50:21.554Z,12.59
2023-05-01T22:55:24.613Z,12.57
2023-05-01T23:00:29.614Z,12.54
2023-05-01T23:05:32.613Z,12.51
2023-05-01T23:10:35.957Z,12.44
2023-05-01T23:15:45.827Z,12.40
2023-05-01T23:20:50.839Z,12.39
2023-05-01T23:25:55.259Z,12.30
2023-05-01T23:31:01.338Z,12.30
2023-05-01T23:36:05.446Z,12.18
2023-05-01T23:41:08.895Z,12.11
2023-05-01T23:46:13.552Z,12.08
2023-05-01T23:51:16.951Z,12.00
2023-05-01T23:56:20.428Z,11.95
